Time;durP1;ratioP1;P1;durP2;ratioP2;P2;SDS_P1;SDS_P2;PMS_P1;PMS_P2;Temp;Humidity;BMP_temperature;BMP_pressure;BME280_temperature;BME280_humidity;BME280_pressure;Samples;Min_cycle;Max_cycle;Signal;HPM_P1;HPM_P2
2022/06/09 00:01:59;;;;;;;;;;;;;;;-140.72;100.00;52674.94;6262505;22;19911;-66
2022/06/09 00:04:27;;;;;;;;;;;;;;;-140.72;100.00;52676.97;6291020;22;19957;-67
2022/06/09 00:06:56;;;;;;;;;;;;;;;-140.72;100.00;52666.84;6291605;22;19962;-66
2022/06/09 00:09:25;;;;;;;;;;;;;;;-140.72;100.00;52685.09;6290725;22;19911;-67
2022/06/09 00:11:51;;;;;;;;;;;;;;;-140.72;100.00;52707.41;6263645;22;20340;-69
2022/06/09 00:14:17;;;;;;;;;;;;;;;-140.72;100.00;52695.25;6288652;22;19938;-67
2022/06/09 00:16:43;;;;;;;;;;;;;;;-140.72;100.00;52705.38;6289029;22;19931;-66
2022/06/09 00:19:08;;;;;;;;;;;;;;;-140.72;100.00;52674.94;6290110;22;19915;-66
2022/06/09 00:21:35;;;;;;;;;;;;;;;-140.72;100.00;52707.41;6289940;22;19911;-66
2022/06/09 00:24:01;;;;;;;;;;;;;;;-140.72;100.00;52699.31;6290318;22;19939;-66
2022/06/09 00:26:27;;;;;;;;;;;;;;;-140.72;100.00;52652.63;6290764;22;19915;-66
2022/06/09 00:28:53;;;;;;;;;;;;;;;-140.72;100.00;52664.81;6290271;22;19955;-67
2022/06/09 00:31:18;;;;;;;;;;;;;;;-140.72;100.00;52715.53;6290134;22;19919;-66
2022/06/09 00:33:43;;;;;;;;;;;;;;;-140.72;100.00;52670.88;6288066;22;19915;-67
2022/06/09 00:36:09;;;;;;;;;;;;;;;-140.72;100.00;52697.28;6289247;22;19967;-66
2022/06/09 00:38:40;;;;;;;;;;;;;;;-140.72;100.00;52668.84;6290019;22;19983;-66
2022/06/09 00:41:05;;;;;;;;;;;;;;;-140.72;100.00;52683.06;6289322;22;19922;-66
2022/06/09 00:43:31;;;;;;;;;;;;;;;-140.72;100.00;52727.72;6289816;22;19915;-68
2022/06/09 00:46:00;;;;;;;;;;;;;;;-140.72;100.00;52727.72;6290495;22;19912;-66
2022/06/09 00:48:37;;;;;;;;;;;;;;;-140.72;100.00;52685.09;6262863;22;19918;-66
2022/06/09 00:51:21;;;;;;;;;;;;;;;-140.72;100.00;52683.06;6289401;22;20008;-67
2022/06/09 00:53:48;;;;;;;;;;;;;;;-140.72;100.00;52691.19;6288980;22;19918;-67
2022/06/09 00:56:14;;;;;;;;;;;;;;;-140.72;100.00;52699.31;6289240;22;20293;-66
2022/06/09 00:58:41;;;;;;;;;;;;;;;-140.72;100.00;52735.81;6289598;22;19911;-66
2022/06/09 01:01:07;;;;;;;;;;;;;;;-140.72;100.00;52679.00;6289975;22;19911;-67
2022/06/09 01:03:43;;;;;;;;;;;;;;;-140.72;100.00;52697.28;6288897;22;19933;-66
2022/06/09 01:06:10;;;;;;;;;;;;;;;-140.72;100.00;52699.31;6289325;22;20309;-68
2022/06/09 01:08:40;;;;;;;;;;;;;;;-140.72;100.00;52697.28;6289116;22;19915;-67
2022/06/09 01:11:06;;;;;;;;;;;;;;;-140.72;100.00;52719.59;6262990;22;19911;-66
2022/06/09 01:13:32;;;;;;;;;;;;;;;-140.72;100.00;52695.25;6289372;22;19938;-68
2022/06/09 01:16:10;;;;;;;;;;;;;;;-140.72;100.00;52699.31;6262733;22;19990;-67
2022/06/09 01:18:48;;;;;;;;;;;;;;;-140.72;100.00;52717.56;6289727;22;19926;-66
2022/06/09 01:21:24;;;;;;;;;;;;;;;-140.72;100.00;52711.47;6289118;22;19918;-67
2022/06/09 01:23:49;;;;;;;;;;;;;;;-140.72;100.00;52715.53;6288737;22;19911;-66
2022/06/09 01:26:34;;;;;;;;;;;;;;;-140.72;100.00;52687.13;6289618;22;19937;-67
2022/06/09 01:29:02;;;;;;;;;;;;;;;-140.72;100.00;52748.00;6291036;22;20291;-66
2022/06/09 01:31:36;;;;;;;;;;;;;;;-140.72;100.00;52719.59;6291012;22;19918;-67
2022/06/09 01:34:20;;;;;;;;;;;;;;;-140.72;100.00;52674.94;6263448;22;20222;-66
2022/06/09 01:36:57;;;;;;;;;;;;;;;-140.72;100.00;52695.25;6290665;22;19911;-66
2022/06/09 01:39:29;;;;;;;;;;;;;;;-140.72;100.00;52676.97;6291154;22;19911;-67
2022/06/09 01:41:54;;;;;;;;;;;;;;;-140.72;100.00;52739.88;6290257;22;19918;-66
2022/06/09 01:44:20;;;;;;;;;;;;;;;-140.72;100.00;52713.50;6263690;22;20297;-66
2022/06/09 01:46:46;;;;;;;;;;;;;;;-140.72;100.00;52713.50;6290445;22;19941;-67
2022/06/09 01:49:17;;;;;;;;;;;;;;;-140.72;100.00;52727.72;6290775;22;19985;-67
2022/06/09 01:51:45;;;;;;;;;;;;;;;-140.72;100.00;52721.63;6262302;22;20329;-66
2022/06/09 01:54:19;;;;;;;;;;;;;;;-140.72;100.00;52719.59;6290084;22;19911;-67
2022/06/09 01:56:49;;;;;;;;;;;;;;;-140.72;100.00;52693.22;6290625;22;19918;-67
2022/06/09 01:59:29;;;;;;;;;;;;;;;-140.72;100.00;52699.31;6290648;22;19990;-67
2022/06/09 02:01:59;;;;;;;;;;;;;;;-140.72;100.00;52725.69;6288651;22;19960;-68
2022/06/09 02:04:30;;;;;;;;;;;;;;;-140.72;100.00;52731.75;6289253;22;19945;-66
2022/06/09 02:06:56;;;;;;;;;;;;;;;-140.72;100.00;52703.34;6290534;22;19911;-66
2022/06/09 02:09:24;;;;;;;;;;;;;;;-140.72;100.00;52691.19;6263716;22;19918;-66
2022/06/09 02:11:52;;;;;;;;;;;;;;;-140.72;100.00;52719.59;6263977;22;19911;-67
2022/06/09 02:14:19;;;;;;;;;;;;;;;-140.72;100.00;52654.66;6290176;22;19916;-67
2022/06/09 02:16:45;;;;;;;;;;;;;;;-140.72;100.00;52703.34;6289982;22;19935;-66
2022/06/09 02:19:10;;;;;;;;;;;;;;;-140.72;100.00;52679.00;6290241;22;19934;-65
2022/06/09 02:21:37;;;;;;;;;;;;;;;-140.72;100.00;52711.47;6263755;22;19911;-67
2022/06/09 02:24:02;;;;;;;;;;;;;;;-140.72;100.00;52703.34;6289272;22;20252;-66
2022/06/09 02:26:28;;;;;;;;;;;;;;;-140.72;100.00;52674.94;6290202;22;19915;-66
2022/06/09 02:28:53;;;;;;;;;;;;;;;-140.72;100.00;52685.09;6289947;22;19919;-66
2022/06/09 02:31:20;;;;;;;;;;;;;;;-140.72;100.00;52703.34;6262103;22;19972;-66
2022/06/09 03:58:15;;;;;;;;;;;;;;;-140.72;100.00;52705.38;6273770;22;20349;-69
2022/06/09 04:00:40;;;;;;;;;;;;;;;-140.72;100.00;52707.41;6276491;22;19916;-69
2022/06/09 04:03:05;;;;;;;;;;;;;;;-140.72;100.00;52666.84;6276695;22;19942;-68
2022/06/09 04:05:31;;;;;;;;;;;;;;;-140.72;100.00;52672.91;6277158;22;19911;-69
2022/06/09 04:07:58;;;;;;;;;;;;;;;-140.72;100.00;52668.84;6276355;22;19911;-68
2022/06/09 04:10:26;;;;;;;;;;;;;;;-140.72;100.00;52687.13;6276324;22;19918;-68
2022/06/09 04:12:51;;;;;;;;;;;;;;;-140.72;100.00;52707.41;6275808;22;20032;-68
2022/06/09 04:15:17;;;;;;;;;;;;;;;-140.72;100.00;52691.19;6275405;22;19911;-69
2022/06/09 04:17:43;;;;;;;;;;;;;;;-140.72;100.00;52731.75;6275621;22;20175;-71
2022/06/09 04:20:08;;;;;;;;;;;;;;;-140.72;100.00;52699.31;6274208;22;20015;-72
2022/06/09 04:22:34;;;;;;;;;;;;;;;-140.72;100.00;52727.72;6274799;22;20366;-71
2022/06/09 04:24:59;;;;;;;;;;;;;;;-140.72;100.00;52676.97;6274657;22;19932;-71
2022/06/09 04:27:24;;;;;;;;;;;;;;;-140.72;100.00;52739.88;6275287;22;19994;-72
2022/06/09 04:29:50;;;;;;;;;;;;;;;-140.72;100.00;52691.19;6275756;22;19957;-72
2022/06/09 04:32:15;;;;;;;;;;;;;;;-140.72;100.00;52739.88;6275017;22;19931;-71
2022/06/09 04:34:42;;;;;;;;;;;;;;;-140.72;100.00;52666.84;6275358;22;19911;-72
2022/06/09 04:37:07;;;;;;;;;;;;;;;-140.72;100.00;52676.97;6275951;22;20302;-78
2022/06/09 04:39:32;;;;;;;;;;;;;;;-140.72;100.00;52689.16;6249607;22;19911;-71
2022/06/09 04:41:58;;;;;;;;;;;;;;;-140.72;100.00;52691.19;6280009;22;19930;-73
2022/06/09 04:44:23;;;;;;;;;;;;;;;-140.72;100.00;52715.53;6273778;22;19911;-73
2022/06/09 04:46:48;;;;;;;;;;;;;;;-140.72;100.00;52670.88;6274736;22;19994;-73
2022/06/09 04:49:13;;;;;;;;;;;;;;;-140.72;100.00;52681.03;6275593;22;19965;-73
2022/06/09 04:51:38;;;;;;;;;;;;;;;-140.72;100.00;52650.59;6277637;22;19919;-72
2022/06/09 04:54:04;;;;;;;;;;;;;;;-140.72;100.00;52644.50;6248365;22;19915;-72
2022/06/09 04:56:29;;;;;;;;;;;;;;;-140.72;100.00;52699.31;6280258;22;19915;-70
2022/06/09 04:58:54;;;;;;;;;;;;;;;-140.72;100.00;52685.09;6279988;22;19922;-70
2022/06/09 05:01:20;;;;;;;;;;;;;;;-140.72;100.00;52687.13;6250240;22;20284;-70
2022/06/09 05:03:46;;;;;;;;;;;;;;;-140.72;100.00;52695.25;6254013;22;19915;-72
2022/06/09 05:06:11;;;;;;;;;;;;;;;-140.72;100.00;52715.53;6250798;22;19961;-73
2022/06/09 05:08:37;;;;;;;;;;;;;;;-140.72;100.00;52707.41;6280675;22;19982;-71
2022/06/09 05:11:02;;;;;;;;;;;;;;;-140.72;100.00;52681.03;6280859;22;20263;-69
2022/06/09 05:13:27;;;;;;;;;;;;;;;-140.72;100.00;52701.31;6279694;22;19915;-70
2022/06/09 05:15:55;;;;;;;;;;;;;;;-140.72;100.00;52703.34;6280983;22;20040;-69
2022/06/09 05:18:22;;;;;;;;;;;;;;;-140.72;100.00;52735.81;6280254;22;19952;-72
2022/06/09 05:20:48;;;;;;;;;;;;;;;-140.72;100.00;52717.56;6263668;22;19961;-70
2022/06/09 05:23:13;;;;;;;;;;;;;;;-140.72;100.00;52703.34;6286852;22;19915;-71
2022/06/09 05:25:39;;;;;;;;;;;;;;;-140.72;100.00;52695.25;6288569;22;20332;-70
2022/06/09 05:28:04;;;;;;;;;;;;;;;-140.72;100.00;52719.59;6297109;22;19926;-70
2022/06/09 05:30:29;;;;;;;;;;;;;;;-140.72;100.00;52662.78;6263522;22;19911;-71
2022/06/09 05:32:55;;;;;;;;;;;;;;;-140.72;100.00;52717.56;6290093;22;19966;-70
2022/06/09 05:35:21;;;;;;;;;;;;;;;-140.72;100.00;52687.13;6287929;22;19923;-70
2022/06/09 05:46:00;;;;;;;;;;;;;;;-140.72;100.00;52707.41;6290466;22;19984;-70
2022/06/09 05:48:25;;;;;;;;;;;;;;;-140.72;100.00;52681.03;6291349;22;19919;-70
2022/06/09 05:50:52;;;;;;;;;;;;;;;-140.72;100.00;52674.94;6287296;22;19915;-70
2022/06/09 05:53:18;;;;;;;;;;;;;;;-140.72;100.00;52711.47;6261088;22;20274;-70
2022/06/09 05:55:43;;;;;;;;;;;;;;;-140.72;100.00;52719.59;6288974;22;19927;-70
2022/06/09 05:58:08;;;;;;;;;;;;;;;-140.72;100.00;52721.63;6292203;22;19915;-70
2022/06/09 06:00:34;;;;;;;;;;;;;;;-140.72;100.00;52695.25;6266077;22;19911;-71
2022/06/09 06:02:59;;;;;;;;;;;;;;;-140.72;100.00;52731.75;6264669;22;19933;-70
2022/06/09 06:08:08;;;;;;;;;;;;;;;-140.72;100.00;52727.72;6292982;22;19922;-71
2022/06/09 06:10:34;;;;;;;;;;;;;;;-140.72;100.00;52731.75;6293764;22;20009;-70
2022/06/09 06:12:59;;;;;;;;;;;;;;;-140.72;100.00;52703.34;6290056;22;19919;-71
2022/06/09 06:15:25;;;;;;;;;;;;;;;-140.72;100.00;52727.72;6256359;22;19926;-69
2022/06/09 06:17:53;;;;;;;;;;;;;;;-140.72;100.00;52674.94;6254237;22;19930;-69
2022/06/09 06:20:19;;;;;;;;;;;;;;;-140.72;100.00;52719.59;6281940;22;19987;-69
2022/06/09 06:22:44;;;;;;;;;;;;;;;-140.72;100.00;52676.97;6255950;22;19927;-70
2022/06/09 06:25:09;;;;;;;;;;;;;;;-140.72;100.00;52685.09;6257019;22;19955;-70
2022/06/09 06:27:35;;;;;;;;;;;;;;;-140.72;100.00;52676.97;6282943;22;19926;-69
2022/06/09 06:30:00;;;;;;;;;;;;;;;-140.72;100.00;52668.84;6283519;22;19915;-69
2022/06/09 06:32:25;;;;;;;;;;;;;;;-140.72;100.00;52687.13;6256974;22;19915;-70
2022/06/09 06:34:51;;;;;;;;;;;;;;;-140.72;100.00;52713.50;6283155;22;20006;-68
2022/06/09 06:37:16;;;;;;;;;;;;;;;-140.72;100.00;52679.00;6281977;22;19922;-69
2022/06/09 06:39:41;;;;;;;;;;;;;;;-140.72;100.00;52723.66;6283095;22;19927;-69
2022/06/09 06:42:06;;;;;;;;;;;;;;;-140.72;100.00;52727.72;6282382;22;20343;-70
2022/06/09 06:44:32;;;;;;;;;;;;;;;-140.72;100.00;52719.59;6282505;22;19967;-70
2022/06/09 06:46:57;;;;;;;;;;;;;;;-140.72;100.00;52646.53;6282728;22;19911;-69
2022/06/09 06:49:22;;;;;;;;;;;;;;;-140.72;100.00;52666.84;6282444;22;19911;-70
2022/06/09 06:51:49;;;;;;;;;;;;;;;-140.72;100.00;52691.19;6283667;22;19932;-70
2022/06/09 06:54:14;;;;;;;;;;;;;;;-140.72;100.00;52697.28;6256226;22;20066;-70
2022/06/09 06:56:39;;;;;;;;;;;;;;;-140.72;100.00;52701.31;6284073;22;20006;-69
2022/06/09 06:59:04;;;;;;;;;;;;;;;-140.72;100.00;52658.72;6256652;22;19915;-69
2022/06/09 07:01:30;;;;;;;;;;;;;;;-140.72;100.00;52670.88;6284262;22;19923;-69
2022/06/09 07:03:56;;;;;;;;;;;;;;;-140.72;100.00;52693.22;6286139;22;19931;-70
2022/06/09 07:06:21;;;;;;;;;;;;;;;-140.72;100.00;52721.63;6284905;22;19924;-70
2022/06/09 07:08:46;;;;;;;;;;;;;;;-140.72;100.00;52656.69;6285620;22;19912;-69
2022/06/09 07:11:12;;;;;;;;;;;;;;;-140.72;100.00;52652.63;6285097;22;19962;-71
2022/06/09 07:13:37;;;;;;;;;;;;;;;-140.72;100.00;52664.81;6279831;22;19923;-71
2022/06/09 07:16:03;;;;;;;;;;;;;;;-140.72;100.00;52638.41;6287339;22;20010;-69
2022/06/09 07:18:29;;;;;;;;;;;;;;;-140.72;100.00;52687.13;6286201;22;19922;-69
2022/06/09 07:20:55;;;;;;;;;;;;;;;-140.72;100.00;52679.00;6287579;22;19923;-70
2022/06/09 07:23:20;;;;;;;;;;;;;;;-140.72;100.00;52670.88;6288328;22;20217;-71
2022/06/09 07:25:45;;;;;;;;;;;;;;;-140.72;100.00;52676.97;6286731;22;19955;-70
2022/06/09 07:28:10;;;;;;;;;;;;;;;-140.72;100.00;52719.59;6288097;22;19919;-70
2022/06/09 07:30:36;;;;;;;;;;;;;;;-140.72;100.00;52646.53;6289485;22;19911;-70
2022/06/09 07:33:01;;;;;;;;;;;;;;;-140.72;100.00;52650.59;6295212;22;19939;-70
2022/06/09 07:35:28;;;;;;;;;;;;;;;-140.72;100.00;52642.47;6259968;22;19946;-70
2022/06/09 07:37:53;;;;;;;;;;;;;;;-140.72;100.00;52601.91;6259288;22;19915;-70
2022/06/09 07:40:18;;;;;;;;;;;;;;;-140.72;100.00;52632.34;6258393;22;19911;-70
2022/06/09 07:42:43;;;;;;;;;;;;;;;-140.72;100.00;52624.22;6285330;22;20392;-67
2022/06/09 07:45:09;;;;;;;;;;;;;;;-140.72;100.00;52642.47;6257163;22;19915;-70
2022/06/09 07:47:35;;;;;;;;;;;;;;;-140.72;100.00;52626.25;6283177;22;19959;-70
2022/06/09 07:50:00;;;;;;;;;;;;;;;-140.72;100.00;52557.25;6283077;22;19911;-70
2022/06/09 07:52:25;;;;;;;;;;;;;;;-140.72;100.00;52593.78;6283974;22;19919;-70
2022/06/09 07:54:51;;;;;;;;;;;;;;;-140.72;100.00;52573.50;6283914;22;19968;-70
2022/06/09 07:57:16;;;;;;;;;;;;;;;-140.72;100.00;52577.53;6284313;22;19926;-70
2022/06/09 07:59:41;;;;;;;;;;;;;;;-140.72;100.00;52612.03;6283703;22;19937;-69
2022/06/09 08:02:07;;;;;;;;;;;;;;;-140.72;100.00;52539.00;6258128;22;19911;-70
2022/06/09 08:04:33;;;;;;;;;;;;;;;-140.72;100.00;52605.94;6288521;22;19912;-70
2022/06/09 08:06:58;;;;;;;;;;;;;;;-140.72;100.00;52532.91;6263380;22;19965;-70
2022/06/09 08:09:23;;;;;;;;;;;;;;;-140.72;100.00;52569.44;6290266;22;19911;-70
2022/06/09 08:11:49;;;;;;;;;;;;;;;-140.72;100.00;52601.91;6288736;22;20190;-70
2022/06/09 08:14:14;;;;;;;;;;;;;;;-140.72;100.00;52512.59;6289385;22;19916;-70
2022/06/09 08:16:40;;;;;;;;;;;;;;;-140.72;100.00;52514.63;6288259;22;19965;-70
2022/06/09 08:19:05;;;;;;;;;;;;;;;-140.72;100.00;52591.75;6289682;22;19939;-70
2022/06/09 08:21:31;;;;;;;;;;;;;;;-140.72;100.00;52530.88;6259854;22;19970;-71
2022/06/09 08:23:57;;;;;;;;;;;;;;;-140.72;100.00;52516.66;6257191;22;20324;-69
2022/06/09 08:26:22;;;;;;;;;;;;;;;-140.72;100.00;52557.25;6255774;22;19915;-71
2022/06/09 08:28:47;;;;;;;;;;;;;;;-140.72;100.00;52539.00;6283113;22;19967;-69
2022/06/09 08:31:12;;;;;;;;;;;;;;;-140.72;100.00;52504.50;6283388;22;19931;-70
2022/06/09 08:33:38;;;;;;;;;;;;;;;-140.72;100.00;52516.66;6282930;22;19930;-71
2022/06/09 08:36:04;;;;;;;;;;;;;;;-140.72;100.00;52514.63;6282840;22;20280;-69
2022/06/09 08:38:29;;;;;;;;;;;;;;;-140.72;100.00;52500.44;6282061;22;20356;-71
2022/06/09 08:40:54;;;;;;;;;;;;;;;-140.72;100.00;52518.69;6279866;22;19911;-71
2022/06/09 08:43:38;;;;;;;;;;;;;;;-140.72;100.00;52504.50;6280596;22;20000;-72
2022/06/09 08:46:30;;;;;;;;;;;;;;;-140.72;100.00;52488.25;6280440;22;20359;-71
2022/06/09 08:48:56;;;;;;;;;;;;;;;-140.72;100.00;52496.38;6231797;22;20250;-71
2022/06/09 08:51:32;;;;;;;;;;;;;;;-140.72;100.00;52536.97;6279843;22;20273;-71
2022/06/09 08:54:08;;;;;;;;;;;;;;;-140.72;100.00;52463.91;6280508;22;19986;-71
2022/06/09 08:56:34;;;;;;;;;;;;;;;-140.72;100.00;52472.03;6279327;22;19915;-72
2022/06/09 08:59:03;;;;;;;;;;;;;;;-140.72;100.00;52514.63;6253697;22;19911;-71
2022/06/09 09:01:40;;;;;;;;;;;;;;;-140.72;100.00;52455.78;6279140;22;20353;-71
2022/06/09 09:04:18;;;;;;;;;;;;;;;-140.72;100.00;52512.59;6278761;22;19911;-71
2022/06/09 09:06:46;;;;;;;;;;;;;;;-140.72;100.00;52482.16;6281675;22;19915;-71
2022/06/09 09:09:16;;;;;;;;;;;;;;;-140.72;100.00;52439.56;6280296;22;19915;-71
2022/06/09 09:11:51;;;;;;;;;;;;;;;-140.72;100.00;52439.56;6280432;22;20301;-70
2022/06/09 09:14:19;;;;;;;;;;;;;;;-140.72;100.00;52411.16;6278998;22;19911;-70
2022/06/09 09:16:51;;;;;;;;;;;;;;;-140.72;100.00;52398.97;6251825;22;19919;-69
2022/06/09 09:19:34;;;;;;;;;;;;;;;-140.72;100.00;52407.09;6252109;22;19972;-68
2022/06/09 09:22:04;;;;;;;;;;;;;;;-140.72;100.00;52413.19;6278619;22;19911;-68
2022/06/09 09:25:05;;;;;;;;;;;;;;;-140.72;100.00;52346.22;6279213;22;19912;-68
2022/06/09 09:28:05;;;;;;;;;;;;;;;-140.72;100.00;52348.25;6155789;23;19928;-68
2022/06/09 09:30:35;;;;;;;;;;;;;;;-140.72;100.00;52330.00;6180823;23;19954;-69
2022/06/09 09:33:00;;;;;;;;;;;;;;;-140.72;100.00;52380.72;6232071;22;20252;-68
2022/06/09 09:35:40;;;;;;;;;;;;;;;-140.72;100.00;52356.38;6270878;22;19963;-69
2022/06/09 09:38:06;;;;;;;;;;;;;;;-140.72;100.00;52415.22;6281668;22;20352;-69
2022/06/09 09:40:43;;;;;;;;;;;;;;;-140.72;100.00;52447.69;6283973;22;20025;-68
2022/06/09 09:43:13;;;;;;;;;;;;;;;-140.72;100.00;52370.56;6275327;22;19982;-68
2022/06/09 09:45:40;;;;;;;;;;;;;;;-140.72;100.00;52330.00;6247962;22;19918;-68
2022/06/09 09:48:25;;;;;;;;;;;;;;;-140.72;100.00;52336.06;6275970;22;19934;-69
2022/06/09 09:50:59;;;;;;;;;;;;;;;-140.72;100.00;52342.16;6276377;22;19911;-69
2022/06/09 09:53:27;;;;;;;;;;;;;;;-140.72;100.00;52313.75;6279175;22;19915;-71
2022/06/09 09:55:54;;;;;;;;;;;;;;;-140.72;100.00;52350.28;6277921;22;20316;-70
2022/06/09 09:58:53;;;;;;;;;;;;;;;-140.72;100.00;52273.19;6278896;22;20174;-69
2022/06/09 10:01:25;;;;;;;;;;;;;;;-140.72;100.00;52265.06;6251050;22;19945;-69
2022/06/09 10:09:32;;;;;;;;;;;;;;;-140.72;100.00;52192.00;6277801;22;19941;-69
2022/06/09 10:12:01;;;;;;;;;;;;;;;-140.72;100.00;52309.69;6271530;22;19923;-69
2022/06/09 10:14:38;;;;;;;;;;;;;;;-140.72;100.00;52198.09;6276665;22;19915;-69
2022/06/09 10:17:18;;;;;;;;;;;;;;;-140.72;100.00;52151.44;6275846;22;19911;-71
2022/06/09 10:19:48;;;;;;;;;;;;;;;-140.72;100.00;52165.63;6249395;22;19911;-72
2022/06/09 10:22:18;;;;;;;;;;;;;;;-140.72;100.00;52133.16;6277060;22;19915;-73
2022/06/09 10:25:02;;;;;;;;;;;;;;;-140.72;100.00;52155.50;6276853;22;19911;-71
2022/06/09 10:27:35;;;;;;;;;;;;;;;-140.72;100.00;52192.00;6276760;22;19916;-72
2022/06/09 10:30:08;;;;;;;;;;;;;;;-140.72;100.00;52323.91;6275866;22;19911;-70
2022/06/09 10:32:43;;;;;;;;;;;;;;;-140.72;100.00;52327.97;6276777;22;19934;-70
2022/06/09 10:35:13;;;;;;;;;;;;;;;-140.72;100.00;52261.00;6250079;22;19919;-71
2022/06/09 10:37:42;;;;;;;;;;;;;;;-140.72;100.00;52238.69;6276766;22;19923;-72
2022/06/09 10:40:13;;;;;;;;;;;;;;;-140.72;100.00;52236.66;6280056;22;19961;-71
2022/06/09 10:42:59;;;;;;;;;;;;;;;-140.72;100.00;52179.84;6278895;22;19942;-74
2022/06/09 10:45:43;;;;;;;;;;;;;;;-140.72;100.00;52206.22;6278198;22;19922;-70
2022/06/09 10:57:02;;;;;;;;;;;;;;;-140.72;100.00;52291.44;6276983;22;20395;-70
2022/06/09 10:59:34;;;;;;;;;;;;;;;-140.72;100.00;52202.16;6276369;22;19951;-70
2022/06/09 11:02:00;;;;;;;;;;;;;;;-140.72;100.00;52161.56;6276648;22;19997;-71
2022/06/09 11:04:35;;;;;;;;;;;;;;;-140.72;100.00;52151.44;6248974;22;19954;-71
2022/06/09 11:07:11;;;;;;;;;;;;;;;-140.72;100.00;52153.47;6276673;22;19938;-71
2022/06/09 11:09:45;;;;;;;;;;;;;;;-140.72;100.00;52315.78;6250016;22;20002;-70
2022/06/09 11:12:14;;;;;;;;;;;;;;;-140.72;100.00;52299.56;6250002;22;19911;-70
2022/06/09 11:14:58;;;;;;;;;;;;;;;-140.72;100.00;52303.59;6276628;22;19950;-71
2022/06/09 11:17:34;;;;;;;;;;;;;;;-140.72;100.00;52157.53;6275916;22;19918;-71
2022/06/09 11:20:34;;;;;;;;;;;;;;;-140.72;100.00;52163.59;6277525;22;19911;-71
2022/06/09 11:23:05;;;;;;;;;;;;;;;-140.72;100.00;52216.34;6129020;23;19934;-70
2022/06/09 11:25:37;;;;;;;;;;;;;;;-140.72;100.00;52155.50;6255816;22;20089;-70
2022/06/09 11:28:11;;;;;;;;;;;;;;;-140.72;100.00;52074.34;6277141;22;19972;-70
2022/06/09 11:30:48;;;;;;;;;;;;;;;-140.72;100.00;52135.19;6277958;22;19934;-70
2022/06/09 11:33:13;;;;;;;;;;;;;;;-140.72;100.00;52167.66;6277259;22;19946;-70
2022/06/09 11:35:43;;;;;;;;;;;;;;;-140.72;100.00;52244.78;6277610;22;19912;-70
2022/06/09 11:38:21;;;;;;;;;;;;;;;-140.72;100.00;52334.03;6287265;22;19911;-70
2022/06/09 11:41:05;;;;;;;;;;;;;;;-140.72;100.00;52311.72;6286785;22;19940;-72
2022/06/09 11:43:45;;;;;;;;;;;;;;;-140.72;100.00;52307.66;6280179;22;19911;-70
2022/06/09 11:46:16;;;;;;;;;;;;;;;-140.72;100.00;52167.66;6277960;22;20287;-71
2022/06/09 11:48:50;;;;;;;;;;;;;;;-140.72;100.00;52167.66;6249669;22;20337;-70
2022/06/09 11:51:21;;;;;;;;;;;;;;;-140.72;100.00;52102.75;6278603;22;19912;-71
2022/06/09 11:53:49;;;;;;;;;;;;;;;-140.72;100.00;52112.88;6278398;22;19986;-70
2022/06/09 11:56:33;;;;;;;;;;;;;;;-140.72;100.00;52080.41;6276544;22;19915;-70
2022/06/09 11:58:59;;;;;;;;;;;;;;;-140.72;100.00;52131.16;6277671;22;19919;-70
2022/06/09 12:01:32;;;;;;;;;;;;;;;-140.72;100.00;52159.56;6276440;22;21276;-70
2022/06/09 12:04:07;;;;;;;;;;;;;;;-140.72;100.00;52183.91;6278037;22;19912;-71
2022/06/09 12:06:40;;;;;;;;;;;;;;;-140.72;100.00;52273.19;6277317;22;20287;-72
2022/06/09 12:09:06;;;;;;;;;;;;;;;-140.72;100.00;52226.50;6277338;22;19911;-71
2022/06/09 12:12:07;;;;;;;;;;;;;;;-140.72;100.00;52313.75;6277987;22;20371;-69
2022/06/09 12:14:35;;;;;;;;;;;;;;;-140.72;100.00;52250.84;6153491;23;19920;-72
2022/06/09 12:17:08;;;;;;;;;;;;;;;-140.72;100.00;52360.44;6254083;22;19979;-72
2022/06/09 12:19:50;;;;;;;;;;;;;;;-140.72;100.00;52200.13;6277761;22;19922;-70
2022/06/09 12:22:30;;;;;;;;;;;;;;;-140.72;100.00;52303.59;6277577;22;19915;-70
2022/06/09 12:25:01;;;;;;;;;;;;;;;-140.72;100.00;52155.50;6278006;22;19998;-70
2022/06/09 12:27:35;;;;;;;;;;;;;;;-140.72;100.00;52118.97;6276982;22;20081;-70
2022/06/09 12:30:00;;;;;;;;;;;;;;;-140.72;100.00;52250.84;6276755;22;19915;-72
2022/06/09 12:32:28;;;;;;;;;;;;;;;-140.72;100.00;52183.91;6276489;22;19912;-72
2022/06/09 12:34:55;;;;;;;;;;;;;;;-140.72;100.00;52232.59;6276387;22;20006;-72
2022/06/09 12:37:23;;;;;;;;;;;;;;;-140.72;100.00;52327.97;6276938;22;19969;-70
2022/06/09 12:39:50;;;;;;;;;;;;;;;-140.72;100.00;52346.22;6278581;22;19912;-70
2022/06/09 12:42:19;;;;;;;;;;;;;;;-140.72;100.00;52232.59;6279179;22;19911;-71
2022/06/09 12:45:07;;;;;;;;;;;;;;;-140.72;100.00;52165.63;6279338;22;19994;-71
2022/06/09 12:47:33;;;;;;;;;;;;;;;-140.72;100.00;52049.97;6263996;22;20283;-71
2022/06/09 12:50:00;;;;;;;;;;;;;;;-140.72;100.00;52027.66;6279015;22;19918;-71
2022/06/09 12:52:43;;;;;;;;;;;;;;;-140.72;100.00;52033.75;6251277;22;19916;-71
2022/06/09 12:55:14;;;;;;;;;;;;;;;-140.72;100.00;52084.47;6280627;22;19931;-72
2022/06/09 12:58:03;;;;;;;;;;;;;;;-140.72;100.00;52121.00;6288350;22;20219;-72
2022/06/09 13:00:49;;;;;;;;;;;;;;;-140.72;100.00;52082.44;6273618;22;19915;-71
2022/06/09 13:03:15;;;;;;;;;;;;;;;-140.72;100.00;52224.47;6286307;22;19957;-72
2022/06/09 13:05:41;;;;;;;;;;;;;;;-140.72;100.00;52185.94;6286628;22;19911;-72
2022/06/09 13:08:15;;;;;;;;;;;;;;;-140.72;100.00;52135.19;6287206;22;20045;-71
2022/06/09 13:10:42;;;;;;;;;;;;;;;-140.72;100.00;52070.28;6287250;22;19937;-71
2022/06/09 13:13:27;;;;;;;;;;;;;;;-140.72;100.00;52123.03;6288047;22;20014;-72
2022/06/09 13:15:57;;;;;;;;;;;;;;;-140.72;100.00;52208.25;6286495;22;19975;-72
2022/06/09 13:18:41;;;;;;;;;;;;;;;-140.72;100.00;52167.66;6288206;22;19919;-72
2022/06/09 13:21:17;;;;;;;;;;;;;;;-140.72;100.00;52151.44;6286701;22;19922;-72
2022/06/09 13:23:44;;;;;;;;;;;;;;;-140.72;100.00;52220.41;6260058;22;19923;-72
2022/06/09 13:26:12;;;;;;;;;;;;;;;-140.72;100.00;52342.16;6264708;22;19912;-71
2022/06/09 13:28:38;;;;;;;;;;;;;;;-140.72;100.00;52313.75;6263211;22;19911;-72
2022/06/09 13:31:07;;;;;;;;;;;;;;;-140.72;100.00;52246.78;6263556;22;20100;-72
2022/06/09 13:33:35;;;;;;;;;;;;;;;-140.72;100.00;52208.25;6290397;22;19918;-71
2022/06/09 13:36:27;;;;;;;;;;;;;;;-140.72;100.00;52208.25;6262753;22;20002;-72
2022/06/09 13:38:52;;;;;;;;;;;;;;;-140.72;100.00;52159.56;6291252;22;19914;-72
2022/06/09 13:41:38;;;;;;;;;;;;;;;-140.72;100.00;52143.31;6295147;22;19911;-71
2022/06/09 13:44:08;;;;;;;;;;;;;;;-140.72;100.00;52133.16;6265997;22;19917;-72
2022/06/09 13:46:35;;;;;;;;;;;;;;;-140.72;100.00;52163.59;6288889;22;19949;-72
2022/06/09 13:49:02;;;;;;;;;;;;;;;-140.72;100.00;52167.66;6288590;22;19911;-72
2022/06/09 13:51:35;;;;;;;;;;;;;;;-140.72;100.00;52139.25;6288064;22;19923;-71
2022/06/09 13:54:14;;;;;;;;;;;;;;;-140.72;100.00;52096.66;6287921;22;19911;-72
2022/06/09 13:56:40;;;;;;;;;;;;;;;-140.72;100.00;52131.16;6288674;22;19946;-71
2022/06/09 13:59:05;;;;;;;;;;;;;;;-140.72;100.00;52224.47;6287606;22;19964;-72
2022/06/09 14:01:31;;;;;;;;;;;;;;;-140.72;100.00;52297.53;6287744;22;20014;-71
2022/06/09 14:03:59;;;;;;;;;;;;;;;-140.72;100.00;52281.28;6259476;22;19938;-71
2022/06/09 14:06:25;;;;;;;;;;;;;;;-140.72;100.00;52285.34;6287990;22;19915;-70
2022/06/09 14:08:51;;;;;;;;;;;;;;;-140.72;100.00;52281.28;6288983;22;20312;-70
2022/06/09 14:11:18;;;;;;;;;;;;;;;-140.72;100.00;52285.34;6261007;22;19911;-70
2022/06/09 14:13:43;;;;;;;;;;;;;;;-140.72;100.00;52330.00;6288261;22;19954;-71
2022/06/09 14:16:10;;;;;;;;;;;;;;;-140.72;100.00;52313.75;6260474;22;19990;-71
2022/06/09 14:18:36;;;;;;;;;;;;;;;-140.72;100.00;52311.72;6287048;22;19922;-71
2022/06/09 14:21:01;;;;;;;;;;;;;;;-140.72;100.00;52374.63;6261320;22;19911;-71